sensor_id;sensor_type;location;lat;lon;timestamp;P1;durP1;ratioP1;P2;durP2;ratioP2
42866;SDS011;39461;40.948;73.006;2022-11-20T00:01:39;14.32;;;9.35;;
42866;SDS011;39461;40.948;73.006;2022-11-20T00:04:12;13.65;;;8.52;;
42866;SDS011;39461;40.948;73.006;2022-11-20T00:06:56;14.05;;;8.27;;
42866;SDS011;39461;40.948;73.006;2022-11-20T00:09:31;11.55;;;8.48;;
42866;SDS011;39461;40.948;73.006;2022-11-20T00:12:06;12.02;;;8.13;;
42866;SDS011;39461;40.948;73.006;2022-11-20T00:14:41;11.65;;;7.80;;
42866;SDS011;39461;40.948;73.006;2022-11-20T00:20:14;10.25;;;6.60;;
42866;SDS011;39461;40.948;73.006;2022-11-20T00:22:49;9.38;;;5.93;;
42866;SDS011;39461;40.948;73.006;2022-11-20T00:25:25;11.38;;;6.47;;
42866;SDS011;39461;40.948;73.006;2022-11-20T00:28:00;10.93;;;6.55;;
42866;SDS011;39461;40.948;73.006;2022-11-20T00:30:33;9.70;;;6.50;;
42866;SDS011;39461;40.948;73.006;2022-11-20T00:33:06;9.23;;;5.70;;
42866;SDS011;39461;40.948;73.006;2022-11-20T00:35:39;9.40;;;5.80;;
42866;SDS011;39461;40.948;73.006;2022-11-20T00:38:12;8.07;;;5.20;;
42866;SDS011;39461;40.948;73.006;2022-11-20T00:40:45;8.13;;;5.30;;
42866;SDS011;39461;40.948;73.006;2022-11-20T00:43:19;9.32;;;5.15;;
42866;SDS011;39461;40.948;73.006;2022-11-20T00:45:59;8.65;;;5.50;;
42866;SDS011;39461;40.948;73.006;2022-11-20T00:48:33;11.75;;;6.25;;
42866;SDS011;39461;40.948;73.006;2022-11-20T00:51:06;7.97;;;5.18;;
42866;SDS011;39461;40.948;73.006;2022-11-20T00:53:33;8.18;;;5.28;;
42866;SDS011;39461;40.948;73.006;2022-11-20T00:56:07;9.32;;;6.55;;
42866;SDS011;39461;40.948;73.006;2022-11-20T00:58:43;12.50;;;9.55;;
42866;SDS011;39461;40.948;73.006;2022-11-20T01:01:17;13.75;;;8.90;;
42866;SDS011;39461;40.948;73.006;2022-11-20T01:03:51;13.05;;;8.18;;
42866;SDS011;39461;40.948;73.006;2022-11-20T01:06:32;14.10;;;9.45;;
42866;SDS011;39461;40.948;73.006;2022-11-20T01:09:11;33.63;;;23.05;;
42866;SDS011;39461;40.948;73.006;2022-11-20T01:11:56;56.72;;;37.28;;
42866;SDS011;39461;40.948;73.006;2022-11-20T01:14:40;72.68;;;44.70;;
42866;SDS011;39461;40.948;73.006;2022-11-20T01:17:15;89.88;;;55.55;;
42866;SDS011;39461;40.948;73.006;2022-11-20T01:22:49;255.70;;;108.32;;
42866;SDS011;39461;40.948;73.006;2022-11-20T01:25:24;251.10;;;105.72;;
42866;SDS011;39461;40.948;73.006;2022-11-20T01:27:59;256.13;;;106.97;;
42866;SDS011;39461;40.948;73.006;2022-11-20T01:30:34;198.68;;;99.35;;
42866;SDS011;39461;40.948;73.006;2022-11-20T01:33:09;184.13;;;95.03;;
42866;SDS011;39461;40.948;73.006;2022-11-20T01:35:44;276.55;;;106.32;;
42866;SDS011;39461;40.948;73.006;2022-11-20T01:38:20;234.95;;;106.97;;
42866;SDS011;39461;40.948;73.006;2022-11-20T01:40:56;197.45;;;101.18;;
42866;SDS011;39461;40.948;73.006;2022-11-20T01:43:31;212.52;;;103.82;;
42866;SDS011;39461;40.948;73.006;2022-11-20T01:46:16;228.00;;;107.07;;
42866;SDS011;39461;40.948;73.006;2022-11-20T01:48:57;219.32;;;106.60;;
42866;SDS011;39461;40.948;73.006;2022-11-20T01:51:43;227.52;;;108.82;;
42866;SDS011;39461;40.948;73.006;2022-11-20T01:57:19;221.35;;;103.50;;
42866;SDS011;39461;40.948;73.006;2022-11-20T01:59:57;201.07;;;98.45;;
42866;SDS011;39461;40.948;73.006;2022-11-20T02:02:32;184.95;;;92.97;;
42866;SDS011;39461;40.948;73.006;2022-11-20T02:05:09;172.25;;;90.47;;
42866;SDS011;39461;40.948;73.006;2022-11-20T02:07:45;140.68;;;82.97;;
42866;SDS011;39461;40.948;73.006;2022-11-20T02:10:23;135.93;;;83.20;;
42866;SDS011;39461;40.948;73.006;2022-11-20T02:12:59;185.32;;;96.32;;
42866;SDS011;39461;40.948;73.006;2022-11-20T02:15:53;176.10;;;96.30;;
42866;SDS011;39461;40.948;73.006;2022-11-20T02:18:28;201.07;;;105.28;;
42866;SDS011;39461;40.948;73.006;2022-11-20T02:21:07;215.02;;;102.07;;
42866;SDS011;39461;40.948;73.006;2022-11-20T02:26:33;205.15;;;99.05;;
42866;SDS011;39461;40.948;73.006;2022-11-20T02:32:17;218.55;;;101.82;;
42866;SDS011;39461;40.948;73.006;2022-11-20T02:34:50;193.43;;;98.43;;
42866;SDS011;39461;40.948;73.006;2022-11-20T02:37:27;231.70;;;108.32;;
42866;SDS011;39461;40.948;73.006;2022-11-20T02:40:07;142.27;;;90.53;;
42866;SDS011;39461;40.948;73.006;2022-11-20T02:42:42;154.00;;;90.40;;
42866;SDS011;39461;40.948;73.006;2022-11-20T02:45:15;183.25;;;95.65;;
42866;SDS011;39461;40.948;73.006;2022-11-20T02:47:50;155.55;;;93.72;;
42866;SDS011;39461;40.948;73.006;2022-11-20T02:50:19;175.43;;;92.20;;
42866;SDS011;39461;40.948;73.006;2022-11-20T02:52:46;172.38;;;92.32;;
42866;SDS011;39461;40.948;73.006;2022-11-20T02:55:21;186.73;;;96.18;;
42866;SDS011;39461;40.948;73.006;2022-11-20T02:57:57;194.35;;;96.78;;
42866;SDS011;39461;40.948;73.006;2022-11-20T03:00:32;187.27;;;98.22;;
42866;SDS011;39461;40.948;73.006;2022-11-20T03:03:07;157.98;;;88.72;;
42866;SDS011;39461;40.948;73.006;2022-11-20T03:05:40;160.27;;;87.63;;
42866;SDS011;39461;40.948;73.006;2022-11-20T03:08:13;176.02;;;94.90;;
42866;SDS011;39461;40.948;73.006;2022-11-20T03:10:46;169.32;;;91.10;;
42866;SDS011;39461;40.948;73.006;2022-11-20T03:13:20;188.23;;;98.60;;
42866;SDS011;39461;40.948;73.006;2022-11-20T03:15:57;200.18;;;106.13;;
42866;SDS011;39461;40.948;73.006;2022-11-20T03:18:32;177.30;;;95.00;;
42866;SDS011;39461;40.948;73.006;2022-11-20T03:21:05;186.98;;;97.35;;
42866;SDS011;39461;40.948;73.006;2022-11-20T03:23:39;211.25;;;106.72;;
42866;SDS011;39461;40.948;73.006;2022-11-20T03:26:16;224.50;;;103.70;;
42866;SDS011;39461;40.948;73.006;2022-11-20T03:28:59;207.10;;;99.70;;
42866;SDS011;39461;40.948;73.006;2022-11-20T03:31:40;179.35;;;97.88;;
42866;SDS011;39461;40.948;73.006;2022-11-20T03:34:13;208.45;;;105.30;;
42866;SDS011;39461;40.948;73.006;2022-11-20T03:36:52;163.90;;;91.10;;
42866;SDS011;39461;40.948;73.006;2022-11-20T03:39:25;200.48;;;99.43;;
42866;SDS011;39461;40.948;73.006;2022-11-20T03:41:59;177.85;;;95.15;;
42866;SDS011;39461;40.948;73.006;2022-11-20T03:44:32;174.23;;;91.90;;
42866;SDS011;39461;40.948;73.006;2022-11-20T03:47:05;171.73;;;96.45;;
42866;SDS011;39461;40.948;73.006;2022-11-20T03:49:38;166.20;;;96.90;;
42866;SDS011;39461;40.948;73.006;2022-11-20T03:52:11;199.70;;;108.55;;
42866;SDS011;39461;40.948;73.006;2022-11-20T03:54:46;194.95;;;104.65;;
42866;SDS011;39461;40.948;73.006;2022-11-20T03:57:21;197.27;;;109.97;;
42866;SDS011;39461;40.948;73.006;2022-11-20T03:59:55;171.40;;;95.28;;
42866;SDS011;39461;40.948;73.006;2022-11-20T04:02:32;176.82;;;98.93;;
42866;SDS011;39461;40.948;73.006;2022-11-20T04:05:07;189.60;;;103.35;;
42866;SDS011;39461;40.948;73.006;2022-11-20T04:07:42;166.23;;;91.75;;
42866;SDS011;39461;40.948;73.006;2022-11-20T04:10:17;163.77;;;89.50;;
42866;SDS011;39461;40.948;73.006;2022-11-20T04:12:54;193.77;;;100.65;;
42866;SDS011;39461;40.948;73.006;2022-11-20T04:15:30;187.15;;;99.85;;
42866;SDS011;39461;40.948;73.006;2022-11-20T04:21:04;192.82;;;103.80;;
42866;SDS011;39461;40.948;73.006;2022-11-20T04:23:39;203.95;;;104.30;;
42866;SDS011;39461;40.948;73.006;2022-11-20T04:26:14;203.18;;;107.82;;
42866;SDS011;39461;40.948;73.006;2022-11-20T04:28:49;198.48;;;106.40;;
42866;SDS011;39461;40.948;73.006;2022-11-20T04:31:26;203.02;;;107.00;;
42866;SDS011;39461;40.948;73.006;2022-11-20T04:34:02;191.45;;;105.43;;
42866;SDS011;39461;40.948;73.006;2022-11-20T04:36:37;203.85;;;109.53;;
42866;SDS011;39461;40.948;73.006;2022-11-20T04:39:13;192.02;;;103.25;;
42866;SDS011;39461;40.948;73.006;2022-11-20T04:41:48;193.50;;;103.30;;
42866;SDS011;39461;40.948;73.006;2022-11-20T04:44:41;198.68;;;104.60;;
42866;SDS011;39461;40.948;73.006;2022-11-20T04:47:14;207.43;;;105.75;;
42866;SDS011;39461;40.948;73.006;2022-11-20T04:49:46;203.27;;;100.25;;
42866;SDS011;39461;40.948;73.006;2022-11-20T04:52:13;195.18;;;97.90;;
42866;SDS011;39461;40.948;73.006;2022-11-20T04:54:47;160.68;;;83.47;;
42866;SDS011;39461;40.948;73.006;2022-11-20T04:57:20;178.45;;;90.95;;
42866;SDS011;39461;40.948;73.006;2022-11-20T04:59:53;189.02;;;94.38;;
42866;SDS011;39461;40.948;73.006;2022-11-20T05:02:27;188.02;;;100.00;;
42866;SDS011;39461;40.948;73.006;2022-11-20T05:05:00;187.75;;;97.63;;
42866;SDS011;39461;40.948;73.006;2022-11-20T05:07:33;187.13;;;95.75;;
42866;SDS011;39461;40.948;73.006;2022-11-20T05:10:12;187.25;;;97.35;;
42866;SDS011;39461;40.948;73.006;2022-11-20T05:12:58;188.57;;;97.78;;
42866;SDS011;39461;40.948;73.006;2022-11-20T05:15:31;161.65;;;85.43;;
42866;SDS011;39461;40.948;73.006;2022-11-20T05:18:05;212.32;;;110.18;;
42866;SDS011;39461;40.948;73.006;2022-11-20T05:20:39;238.18;;;116.68;;
42866;SDS011;39461;40.948;73.006;2022-11-20T05:23:12;239.77;;;120.13;;
42866;SDS011;39461;40.948;73.006;2022-11-20T05:25:45;232.00;;;114.38;;
42866;SDS011;39461;40.948;73.006;2022-11-20T05:28:24;241.10;;;120.78;;
42866;SDS011;39461;40.948;73.006;2022-11-20T05:31:05;240.88;;;123.05;;
42866;SDS011;39461;40.948;73.006;2022-11-20T05:33:39;242.80;;;121.30;;
42866;SDS011;39461;40.948;73.006;2022-11-20T05:36:13;252.40;;;130.90;;
42866;SDS011;39461;40.948;73.006;2022-11-20T05:38:47;225.43;;;114.72;;
42866;SDS011;39461;40.948;73.006;2022-11-20T05:41:20;225.32;;;116.00;;
42866;SDS011;39461;40.948;73.006;2022-11-20T05:43:53;220.43;;;114.78;;
42866;SDS011;39461;40.948;73.006;2022-11-20T05:46:26;227.23;;;114.38;;
42866;SDS011;39461;40.948;73.006;2022-11-20T05:49:00;222.10;;;114.35;;
42866;SDS011;39461;40.948;73.006;2022-11-20T05:51:33;213.57;;;112.75;;
42866;SDS011;39461;40.948;73.006;2022-11-20T05:54:06;209.18;;;108.68;;
42866;SDS011;39461;40.948;73.006;2022-11-20T05:56:39;225.73;;;112.72;;
42866;SDS011;39461;40.948;73.006;2022-11-20T05:59:12;211.93;;;105.50;;
42866;SDS011;39461;40.948;73.006;2022-11-20T06:01:55;210.00;;;99.38;;
42866;SDS011;39461;40.948;73.006;2022-11-20T06:04:30;191.38;;;96.65;;
42866;SDS011;39461;40.948;73.006;2022-11-20T06:07:06;168.07;;;88.15;;
42866;SDS011;39461;40.948;73.006;2022-11-20T06:09:41;220.93;;;110.05;;
42866;SDS011;39461;40.948;73.006;2022-11-20T06:12:16;195.07;;;101.75;;
42866;SDS011;39461;40.948;73.006;2022-11-20T06:14:51;194.95;;;99.82;;
42866;SDS011;39461;40.948;73.006;2022-11-20T06:17:26;193.25;;;101.35;;
42866;SDS011;39461;40.948;73.006;2022-11-20T06:20:00;175.45;;;93.95;;
42866;SDS011;39461;40.948;73.006;2022-11-20T06:22:33;155.20;;;84.32;;
42866;SDS011;39461;40.948;73.006;2022-11-20T06:25:06;186.35;;;96.32;;
42866;SDS011;39461;40.948;73.006;2022-11-20T06:27:45;201.82;;;107.57;;
42866;SDS011;39461;40.948;73.006;2022-11-20T06:30:24;215.32;;;107.18;;
42866;SDS011;39461;40.948;73.006;2022-11-20T06:33:00;200.05;;;102.75;;
42866;SDS011;39461;40.948;73.006;2022-11-20T06:35:35;194.07;;;106.72;;
42866;SDS011;39461;40.948;73.006;2022-11-20T06:38:10;221.20;;;112.55;;
42866;SDS011;39461;40.948;73.006;2022-11-20T06:40:45;218.88;;;109.55;;
42866;SDS011;39461;40.948;73.006;2022-11-20T06:43:20;194.15;;;102.40;;
42866;SDS011;39461;40.948;73.006;2022-11-20T06:45:56;215.07;;;106.05;;
42866;SDS011;39461;40.948;73.006;2022-11-20T06:48:31;221.85;;;108.53;;
42866;SDS011;39461;40.948;73.006;2022-11-20T06:51:04;215.13;;;104.45;;
42866;SDS011;39461;40.948;73.006;2022-11-20T06:53:31;187.95;;;97.72;;
42866;SDS011;39461;40.948;73.006;2022-11-20T06:56:05;212.18;;;103.22;;
42866;SDS011;39461;40.948;73.006;2022-11-20T06:58:39;222.63;;;104.20;;
42866;SDS011;39461;40.948;73.006;2022-11-20T07:01:12;192.75;;;98.25;;
42866;SDS011;39461;40.948;73.006;2022-11-20T07:03:48;196.00;;;95.10;;
42866;SDS011;39461;40.948;73.006;2022-11-20T07:06:22;205.18;;;96.90;;
42866;SDS011;39461;40.948;73.006;2022-11-20T07:08:56;188.27;;;92.07;;
42866;SDS011;39461;40.948;73.006;2022-11-20T07:11:31;175.50;;;85.97;;
42866;SDS011;39461;40.948;73.006;2022-11-20T07:14:06;208.02;;;94.20;;
42866;SDS011;39461;40.948;73.006;2022-11-20T07:16:41;183.57;;;89.28;;
42866;SDS011;39461;40.948;73.006;2022-11-20T07:19:20;184.48;;;92.93;;
42866;SDS011;39461;40.948;73.006;2022-11-20T07:21:54;215.55;;;103.13;;
42866;SDS011;39461;40.948;73.006;2022-11-20T07:24:27;212.48;;;98.70;;
42866;SDS011;39461;40.948;73.006;2022-11-20T07:27:00;216.18;;;98.38;;
42866;SDS011;39461;40.948;73.006;2022-11-20T07:29:34;201.65;;;95.63;;
42866;SDS011;39461;40.948;73.006;2022-11-20T07:32:07;209.73;;;93.65;;
42866;SDS011;39461;40.948;73.006;2022-11-20T07:34:40;207.40;;;98.22;;
42866;SDS011;39461;40.948;73.006;2022-11-20T07:37:13;203.48;;;97.45;;
42866;SDS011;39461;40.948;73.006;2022-11-20T07:39:46;221.80;;;104.13;;
42866;SDS011;39461;40.948;73.006;2022-11-20T07:42:21;223.77;;;105.43;;
42866;SDS011;39461;40.948;73.006;2022-11-20T07:44:54;234.75;;;111.45;;
42866;SDS011;39461;40.948;73.006;2022-11-20T07:47:38;223.55;;;102.60;;
42866;SDS011;39461;40.948;73.006;2022-11-20T07:50:13;226.65;;;100.63;;
42866;SDS011;39461;40.948;73.006;2022-11-20T07:52:48;239.73;;;106.68;;
42866;SDS011;39461;40.948;73.006;2022-11-20T07:55:23;231.10;;;104.70;;
42866;SDS011;39461;40.948;73.006;2022-11-20T07:57:58;229.15;;;106.25;;
42866;SDS011;39461;40.948;73.006;2022-11-20T08:00:33;243.50;;;110.40;;
42866;SDS011;39461;40.948;73.006;2022-11-20T08:03:06;236.82;;;110.38;;
42866;SDS011;39461;40.948;73.006;2022-11-20T08:05:40;240.80;;;112.70;;
42866;SDS011;39461;40.948;73.006;2022-11-20T08:08:19;228.18;;;108.80;;
42866;SDS011;39461;40.948;73.006;2022-11-20T08:10:56;241.88;;;110.80;;
42866;SDS011;39461;40.948;73.006;2022-11-20T08:13:49;244.10;;;113.00;;
42866;SDS011;39461;40.948;73.006;2022-11-20T08:16:38;233.93;;;113.85;;
42866;SDS011;39461;40.948;73.006;2022-11-20T08:19:12;257.38;;;116.78;;
42866;SDS011;39461;40.948;73.006;2022-11-20T08:21:46;250.30;;;113.18;;
42866;SDS011;39461;40.948;73.006;2022-11-20T08:24:19;241.10;;;111.72;;
42866;SDS011;39461;40.948;73.006;2022-11-20T08:26:52;241.98;;;111.07;;
42866;SDS011;39461;40.948;73.006;2022-11-20T08:29:28;238.85;;;113.50;;
42866;SDS011;39461;40.948;73.006;2022-11-20T08:32:01;254.50;;;114.03;;
42866;SDS011;39461;40.948;73.006;2022-11-20T08:34:39;241.70;;;114.72;;
42866;SDS011;39461;40.948;73.006;2022-11-20T08:37:12;262.98;;;117.13;;
42866;SDS011;39461;40.948;73.006;2022-11-20T08:39:46;237.90;;;107.07;;
42866;SDS011;39461;40.948;73.006;2022-11-20T08:42:13;238.07;;;112.50;;
42866;SDS011;39461;40.948;73.006;2022-11-20T08:44:46;235.57;;;107.53;;
42866;SDS011;39461;40.948;73.006;2022-11-20T08:47:19;258.45;;;117.03;;
42866;SDS011;39461;40.948;73.006;2022-11-20T08:49:57;281.42;;;136.80;;
42866;SDS011;39461;40.948;73.006;2022-11-20T08:52:24;277.95;;;118.43;;
42866;SDS011;39461;40.948;73.006;2022-11-20T08:54:55;230.73;;;111.78;;
42866;SDS011;39461;40.948;73.006;2022-11-20T08:57:30;256.63;;;113.57;;
42866;SDS011;39461;40.948;73.006;2022-11-20T09:00:04;277.02;;;119.13;;
42866;SDS011;39461;40.948;73.006;2022-11-20T09:02:40;250.15;;;116.78;;
42866;SDS011;39461;40.948;73.006;2022-11-20T09:05:13;272.73;;;120.78;;
42866;SDS011;39461;40.948;73.006;2022-11-20T09:07:49;226.45;;;105.35;;
42866;SDS011;39461;40.948;73.006;2022-11-20T09:10:22;245.05;;;108.03;;
42866;SDS011;39461;40.948;73.006;2022-11-20T09:12:57;266.60;;;115.85;;
42866;SDS011;39461;40.948;73.006;2022-11-20T09:15:31;256.45;;;117.57;;
42866;SDS011;39461;40.948;73.006;2022-11-20T09:18:08;265.63;;;121.28;;
42866;SDS011;39461;40.948;73.006;2022-11-20T09:20:44;238.25;;;110.18;;
42866;SDS011;39461;40.948;73.006;2022-11-20T09:23:19;256.55;;;120.30;;
42866;SDS011;39461;40.948;73.006;2022-11-20T09:28:52;297.42;;;134.02;;
42866;SDS011;39461;40.948;73.006;2022-11-20T09:31:33;274.77;;;124.60;;
42866;SDS011;39461;40.948;73.006;2022-11-20T09:34:10;293.42;;;139.80;;
42866;SDS011;39461;40.948;73.006;2022-11-20T09:36:46;283.10;;;128.38;;
42866;SDS011;39461;40.948;73.006;2022-11-20T09:39:21;251.38;;;119.47;;
42866;SDS011;39461;40.948;73.006;2022-11-20T09:47:36;271.13;;;121.30;;
42866;SDS011;39461;40.948;73.006;2022-11-20T09:55:35;244.13;;;114.80;;
42866;SDS011;39461;40.948;73.006;2022-11-20T09:58:31;261.42;;;118.57;;
42866;SDS011;39461;40.948;73.006;2022-11-20T10:01:13;272.25;;;123.68;;
42866;SDS011;39461;40.948;73.006;2022-11-20T10:03:51;277.63;;;126.72;;
42866;SDS011;39461;40.948;73.006;2022-11-20T10:06:34;274.52;;;124.57;;
42866;SDS011;39461;40.948;73.006;2022-11-20T10:11:58;295.42;;;129.27;;
42866;SDS011;39461;40.948;73.006;2022-11-20T10:23:04;295.85;;;124.20;;
42866;SDS011;39461;40.948;73.006;2022-11-20T10:25:46;300.30;;;130.00;;
42866;SDS011;39461;40.948;73.006;2022-11-20T10:29:09;309.25;;;138.52;;
42866;SDS011;39461;40.948;73.006;2022-11-20T10:31:41;300.30;;;132.10;;
42866;SDS011;39461;40.948;73.006;2022-11-20T10:40:01;309.55;;;136.82;;
42866;SDS011;39461;40.948;73.006;2022-11-20T10:42:41;313.90;;;142.35;;
42866;SDS011;39461;40.948;73.006;2022-11-20T10:50:50;317.80;;;130.45;;
42866;SDS011;39461;40.948;73.006;2022-11-20T10:53:26;299.17;;;133.13;;
42866;SDS011;39461;40.948;73.006;2022-11-20T11:01:58;273.30;;;118.72;;
42866;SDS011;39461;40.948;73.006;2022-11-20T11:04:38;248.52;;;112.60;;
42866;SDS011;39461;40.948;73.006;2022-11-20T11:07:16;251.32;;;112.22;;
42866;SDS011;39461;40.948;73.006;2022-11-20T11:09:53;248.70;;;111.95;;
42866;SDS011;39461;40.948;73.006;2022-11-20T11:12:29;277.90;;;118.40;;
42866;SDS011;39461;40.948;73.006;2022-11-20T11:15:04;248.48;;;110.57;;
42866;SDS011;39461;40.948;73.006;2022-11-20T11:17:45;252.13;;;106.85;;
42866;SDS011;39461;40.948;73.006;2022-11-20T11:20:21;228.63;;;103.28;;
42866;SDS011;39461;40.948;73.006;2022-11-20T11:22:58;264.40;;;114.78;;
42866;SDS011;39461;40.948;73.006;2022-11-20T11:28:20;288.05;;;129.20;;
42866;SDS011;39461;40.948;73.006;2022-11-20T11:30:56;269.75;;;118.82;;
42866;SDS011;39461;40.948;73.006;2022-11-20T11:33:31;252.55;;;117.60;;
42866;SDS011;39461;40.948;73.006;2022-11-20T11:36:20;261.35;;;116.70;;
42866;SDS011;39461;40.948;73.006;2022-11-20T11:38:59;247.38;;;113.68;;
42866;SDS011;39461;40.948;73.006;2022-11-20T11:41:34;257.23;;;115.25;;
42866;SDS011;39461;40.948;73.006;2022-11-20T11:47:25;254.82;;;106.47;;
42866;SDS011;39461;40.948;73.006;2022-11-20T11:58:40;263.88;;;119.50;;
42866;SDS011;39461;40.948;73.006;2022-11-20T12:01:29;271.13;;;118.97;;
42866;SDS011;39461;40.948;73.006;2022-11-20T12:06:42;261.08;;;118.88;;
42866;SDS011;39461;40.948;73.006;2022-11-20T12:09:20;250.68;;;113.78;;
42866;SDS011;39461;40.948;73.006;2022-11-20T12:11:58;256.13;;;118.10;;
42866;SDS011;39461;40.948;73.006;2022-11-20T12:14:45;262.50;;;119.20;;
42866;SDS011;39461;40.948;73.006;2022-11-20T12:17:19;239.90;;;108.95;;
42866;SDS011;39461;40.948;73.006;2022-11-20T12:19:52;244.77;;;108.78;;
42866;SDS011;39461;40.948;73.006;2022-11-20T12:30:47;286.42;;;130.82;;
42866;SDS011;39461;40.948;73.006;2022-11-20T12:39:14;269.50;;;122.70;;
42866;SDS011;39461;40.948;73.006;2022-11-20T12:50:50;283.65;;;130.35;;
42866;SDS011;39461;40.948;73.006;2022-11-20T12:58:48;307.33;;;146.43;;
42866;SDS011;39461;40.948;73.006;2022-11-20T13:01:34;290.65;;;146.85;;
42866;SDS011;39461;40.948;73.006;2022-11-20T13:06:58;340.17;;;172.35;;
42866;SDS011;39461;40.948;73.006;2022-11-20T13:09:33;369.08;;;188.20;;
42866;SDS011;39461;40.948;73.006;2022-11-20T13:14:55;397.83;;;212.32;;
42866;SDS011;39461;40.948;73.006;2022-11-20T13:17:34;408.13;;;228.25;;
42866;SDS011;39461;40.948;73.006;2022-11-20T13:20:12;444.50;;;239.77;;
42866;SDS011;39461;40.948;73.006;2022-11-20T13:22:50;448.40;;;246.95;;
42866;SDS011;39461;40.948;73.006;2022-11-20T13:28:24;399.00;;;217.27;;
42866;SDS011;39461;40.948;73.006;2022-11-20T13:30:54;425.35;;;228.27;;
42866;SDS011;39461;40.948;73.006;2022-11-20T13:36:21;375.98;;;202.27;;
42866;SDS011;39461;40.948;73.006;2022-11-20T13:38:55;370.55;;;195.90;;
42866;SDS011;39461;40.948;73.006;2022-11-20T13:41:28;355.63;;;186.60;;
42866;SDS011;39461;40.948;73.006;2022-11-20T13:46:44;376.25;;;198.00;;
42866;SDS011;39461;40.948;73.006;2022-11-20T13:49:23;387.08;;;206.55;;
42866;SDS011;39461;40.948;73.006;2022-11-20T13:58:25;364.38;;;192.68;;
42866;SDS011;39461;40.948;73.006;2022-11-20T14:01:09;329.05;;;170.57;;
42866;SDS011;39461;40.948;73.006;2022-11-20T14:03:49;343.52;;;176.68;;
42866;SDS011;39461;40.948;73.006;2022-11-20T14:08:56;337.30;;;161.52;;
42866;SDS011;39461;40.948;73.006;2022-11-20T14:11:30;322.50;;;166.65;;
42866;SDS011;39461;40.948;73.006;2022-11-20T14:14:17;314.73;;;160.88;;
42866;SDS011;39461;40.948;73.006;2022-11-20T14:16:51;353.23;;;173.90;;
42866;SDS011;39461;40.948;73.006;2022-11-20T14:19:28;340.55;;;169.52;;
42866;SDS011;39461;40.948;73.006;2022-11-20T14:22:10;350.52;;;170.98;;
42866;SDS011;39461;40.948;73.006;2022-11-20T14:24:43;332.55;;;159.43;;
42866;SDS011;39461;40.948;73.006;2022-11-20T14:27:22;329.52;;;161.68;;
42866;SDS011;39461;40.948;73.006;2022-11-20T14:30:01;334.08;;;159.93;;
42866;SDS011;39461;40.948;73.006;2022-11-20T14:32:35;318.50;;;152.70;;
42866;SDS011;39461;40.948;73.006;2022-11-20T14:35:09;344.35;;;157.27;;
42866;SDS011;39461;40.948;73.006;2022-11-20T14:37:43;294.67;;;139.48;;
42866;SDS011;39461;40.948;73.006;2022-11-20T14:40:25;314.98;;;146.48;;
42866;SDS011;39461;40.948;73.006;2022-11-20T14:43:20;317.63;;;146.73;;
42866;SDS011;39461;40.948;73.006;2022-11-20T14:46:00;324.35;;;151.02;;
42866;SDS011;39461;40.948;73.006;2022-11-20T14:48:40;305.58;;;145.55;;
42866;SDS011;39461;40.948;73.006;2022-11-20T14:53:52;301.85;;;129.15;;
42866;SDS011;39461;40.948;73.006;2022-11-20T14:56:27;271.10;;;118.55;;
42866;SDS011;39461;40.948;73.006;2022-11-20T14:59:02;253.30;;;119.30;;
42866;SDS011;39461;40.948;73.006;2022-11-20T15:04:31;273.50;;;123.95;;
42866;SDS011;39461;40.948;73.006;2022-11-20T15:07:04;301.98;;;131.25;;
42866;SDS011;39461;40.948;73.006;2022-11-20T15:09:37;301.13;;;140.50;;
42866;SDS011;39461;40.948;73.006;2022-11-20T15:12:15;309.00;;;142.48;;
42866;SDS011;39461;40.948;73.006;2022-11-20T15:14:56;294.05;;;137.75;;
42866;SDS011;39461;40.948;73.006;2022-11-20T15:17:30;258.70;;;122.72;;
42866;SDS011;39461;40.948;73.006;2022-11-20T15:20:04;277.00;;;126.93;;
42866;SDS011;39461;40.948;73.006;2022-11-20T15:22:43;287.38;;;130.43;;
42866;SDS011;39461;40.948;73.006;2022-11-20T15:25:22;289.15;;;131.25;;
42866;SDS011;39461;40.948;73.006;2022-11-20T15:27:58;288.80;;;128.75;;
42866;SDS011;39461;40.948;73.006;2022-11-20T15:30:33;299.50;;;129.85;;
42866;SDS011;39461;40.948;73.006;2022-11-20T15:33:08;276.98;;;124.18;;
42866;SDS011;39461;40.948;73.006;2022-11-20T15:35:44;279.92;;;129.82;;
42866;SDS011;39461;40.948;73.006;2022-11-20T15:38:19;276.27;;;129.88;;
42866;SDS011;39461;40.948;73.006;2022-11-20T15:40:55;279.90;;;129.05;;
42866;SDS011;39461;40.948;73.006;2022-11-20T15:43:30;300.27;;;132.70;;
42866;SDS011;39461;40.948;73.006;2022-11-20T15:46:10;313.48;;;134.63;;
42866;SDS011;39461;40.948;73.006;2022-11-20T15:48:48;295.70;;;131.18;;
42866;SDS011;39461;40.948;73.006;2022-11-20T15:51:36;287.83;;;129.52;;
42866;SDS011;39461;40.948;73.006;2022-11-20T15:54:13;281.75;;;126.13;;
42866;SDS011;39461;40.948;73.006;2022-11-20T15:56:51;302.80;;;140.40;;
42866;SDS011;39461;40.948;73.006;2022-11-20T15:59:26;319.83;;;141.48;;
42866;SDS011;39461;40.948;73.006;2022-11-20T16:02:01;306.88;;;139.85;;
42866;SDS011;39461;40.948;73.006;2022-11-20T16:04:36;304.60;;;135.02;;
42866;SDS011;39461;40.948;73.006;2022-11-20T16:07:11;277.30;;;125.38;;
42866;SDS011;39461;40.948;73.006;2022-11-20T16:09:47;301.80;;;136.48;;
42866;SDS011;39461;40.948;73.006;2022-11-20T16:12:22;285.48;;;127.15;;
42866;SDS011;39461;40.948;73.006;2022-11-20T16:15:15;258.52;;;113.28;;
42866;SDS011;39461;40.948;73.006;2022-11-20T16:18:10;270.48;;;111.32;;
42866;SDS011;39461;40.948;73.006;2022-11-20T16:20:46;280.13;;;115.82;;
42866;SDS011;39461;40.948;73.006;2022-11-20T16:23:21;286.73;;;124.03;;
42866;SDS011;39461;40.948;73.006;2022-11-20T16:25:56;303.63;;;129.75;;
42866;SDS011;39461;40.948;73.006;2022-11-20T16:28:31;325.58;;;137.93;;
42866;SDS011;39461;40.948;73.006;2022-11-20T16:31:12;351.20;;;140.45;;
42866;SDS011;39461;40.948;73.006;2022-11-20T16:33:51;329.55;;;136.13;;
42866;SDS011;39461;40.948;73.006;2022-11-20T16:36:27;321.25;;;136.20;;
42866;SDS011;39461;40.948;73.006;2022-11-20T16:39:03;327.60;;;138.77;;
42866;SDS011;39461;40.948;73.006;2022-11-20T16:41:38;344.30;;;139.65;;
42866;SDS011;39461;40.948;73.006;2022-11-20T16:44:14;348.67;;;143.00;;
42866;SDS011;39461;40.948;73.006;2022-11-20T16:46:47;322.73;;;135.00;;
42866;SDS011;39461;40.948;73.006;2022-11-20T16:49:20;324.38;;;132.93;;
42866;SDS011;39461;40.948;73.006;2022-11-20T16:51:49;355.00;;;145.75;;
42866;SDS011;39461;40.948;73.006;2022-11-20T16:54:18;348.27;;;144.57;;
42866;SDS011;39461;40.948;73.006;2022-11-20T16:56:53;340.20;;;144.85;;